Chamisal, New Mexico
Current Conditions -  °F | °C
As of 1:35 PM on Friday 28 Nov 2014 (Local Time) from KSKX Reporting Station
Clear Clear  
Wind Chill: 54°   Ceiling: Unl
Heat Index: 54°   Visibility: 10mi
Dew Point: 23°   Wind: 3mph
Humidity: 30%   Direction: 230°SW
Pressure: 30.18"   Gusts: NA
Location:  36.17°N, 105.74°W
Report Text: KSKX 282035Z AUTO 23003KT 10SM CLR 12/M05 A3018 RMK AO1
Loading
Personal Weather Stations






























Interactive Weather Map New forecast layout! Learn more

10-Day Weather Forecast

Advertisements
Track Severe Weather on mobile